sensor_id;sensor_type;location;lat;lon;timestamp;pressure;altitude;pressure_sealevel;temperature;humidity
48424;BME280;34232;42.502;26.014;2023-02-19T00:01:11;100207.75;;;8.87;50.32
48424;BME280;34232;42.502;26.014;2023-02-19T00:03:37;100205.66;;;8.79;51.19
48424;BME280;34232;42.502;26.014;2023-02-19T00:06:03;100210.19;;;8.77;51.23
48424;BME280;34232;42.502;26.014;2023-02-19T00:08:29;100214.84;;;8.73;52.02
48424;BME280;34232;42.502;26.014;2023-02-19T00:11:00;100221.75;;;8.74;52.24
48424;BME280;34232;42.502;26.014;2023-02-19T00:13:26;100223.31;;;8.77;53.27
48424;BME280;34232;42.502;26.014;2023-02-19T00:15:51;100209.22;;;8.78;53.15
48424;BME280;34232;42.502;26.014;2023-02-19T00:18:16;100214.03;;;8.84;52.07
48424;BME280;34232;42.502;26.014;2023-02-19T00:20:41;100203.28;;;8.76;51.62
48424;BME280;34232;42.502;26.014;2023-02-19T00:23:07;100205.91;;;8.76;52.52
48424;BME280;34232;42.502;26.014;2023-02-19T00:25:34;100196.84;;;8.80;53.74
48424;BME280;34232;42.502;26.014;2023-02-19T00:28:00;100187.78;;;8.84;53.22
48424;BME280;34232;42.502;26.014;2023-02-19T00:30:25;100191.88;;;8.88;53.14
48424;BME280;34232;42.502;26.014;2023-02-19T00:32:50;100189.25;;;8.88;54.42
48424;BME280;34232;42.502;26.014;2023-02-19T00:35:16;100186.88;;;8.96;54.72
48424;BME280;34232;42.502;26.014;2023-02-19T00:37:41;100187.50;;;9.00;52.33
48424;BME280;34232;42.502;26.014;2023-02-19T00:40:06;100185.91;;;8.86;51.97
48424;BME280;34232;42.502;26.014;2023-02-19T00:42:31;100198.13;;;8.74;51.38
48424;BME280;34232;42.502;26.014;2023-02-19T00:44:57;100192.38;;;8.69;51.95
48424;BME280;34232;42.502;26.014;2023-02-19T00:47:22;100192.69;;;8.65;51.94
48424;BME280;34232;42.502;26.014;2023-02-19T00:49:47;100186.00;;;8.61;50.99
48424;BME280;34232;42.502;26.014;2023-02-19T00:52:12;100188.34;;;8.53;51.68
48424;BME280;34232;42.502;26.014;2023-02-19T00:54:38;100189.22;;;8.40;51.67
48424;BME280;34232;42.502;26.014;2023-02-19T00:57:03;100178.94;;;8.37;51.57
48424;BME280;34232;42.502;26.014;2023-02-19T00:59:30;100174.97;;;8.32;51.92
48424;BME280;34232;42.502;26.014;2023-02-19T01:01:55;100167.09;;;8.32;51.73
48424;BME280;34232;42.502;26.014;2023-02-19T01:04:20;100170.56;;;8.32;52.07
48424;BME280;34232;42.502;26.014;2023-02-19T01:06:46;100164.47;;;8.19;53.34
48424;BME280;34232;42.502;26.014;2023-02-19T01:09:12;100175.06;;;8.18;54.17
48424;BME280;34232;42.502;26.014;2023-02-19T01:11:38;100171.59;;;8.17;53.45
48424;BME280;34232;42.502;26.014;2023-02-19T01:14:03;100167.22;;;8.18;54.10
48424;BME280;34232;42.502;26.014;2023-02-19T01:16:29;100154.19;;;8.16;53.85
48424;BME280;34232;42.502;26.014;2023-02-19T01:18:55;100160.84;;;8.09;53.47
48424;BME280;34232;42.502;26.014;2023-02-19T01:21:22;100160.31;;;8.04;53.28
48424;BME280;34232;42.502;26.014;2023-02-19T01:23:48;100152.38;;;7.93;52.70
48424;BME280;34232;42.502;26.014;2023-02-19T01:26:20;100154.69;;;7.85;53.30
48424;BME280;34232;42.502;26.014;2023-02-19T01:28:46;100150.47;;;7.82;53.89
48424;BME280;34232;42.502;26.014;2023-02-19T01:31:13;100137.19;;;7.72;54.65
48424;BME280;34232;42.502;26.014;2023-02-19T01:33:39;100138.53;;;7.65;54.43
48424;BME280;34232;42.502;26.014;2023-02-19T01:36:05;100125.56;;;7.64;55.71
48424;BME280;34232;42.502;26.014;2023-02-19T01:38:30;100125.56;;;7.64;55.87
48424;BME280;34232;42.502;26.014;2023-02-19T01:40:56;100134.16;;;7.66;55.98
48424;BME280;34232;42.502;26.014;2023-02-19T01:43:22;100137.72;;;7.65;56.66
48424;BME280;34232;42.502;26.014;2023-02-19T01:45:47;100129.53;;;7.69;57.02
48424;BME280;34232;42.502;26.014;2023-02-19T01:48:14;100135.31;;;7.75;57.15
48424;BME280;34232;42.502;26.014;2023-02-19T01:50:43;100129.94;;;7.89;57.44
48424;BME280;34232;42.502;26.014;2023-02-19T01:53:10;100125.72;;;7.99;56.68
48424;BME280;34232;42.502;26.014;2023-02-19T01:55:37;100138.72;;;8.00;56.82
48424;BME280;34232;42.502;26.014;2023-02-19T01:58:03;100135.03;;;8.03;55.82
48424;BME280;34232;42.502;26.014;2023-02-19T02:00:29;100132.31;;;8.04;55.18
48424;BME280;34232;42.502;26.014;2023-02-19T02:02:56;100132.44;;;8.03;54.51
48424;BME280;34232;42.502;26.014;2023-02-19T02:05:40;100131.47;;;8.04;54.61
48424;BME280;34232;42.502;26.014;2023-02-19T02:08:06;100142.06;;;8.02;54.62
48424;BME280;34232;42.502;26.014;2023-02-19T02:10:50;100133.25;;;8.03;54.99
48424;BME280;34232;42.502;26.014;2023-02-19T02:13:16;100145.75;;;8.00;54.65
48424;BME280;34232;42.502;26.014;2023-02-19T02:15:49;100150.25;;;7.98;54.71
48424;BME280;34232;42.502;26.014;2023-02-19T02:18:26;100145.00;;;7.98;55.55
48424;BME280;34232;42.502;26.014;2023-02-19T02:31:14;100146.06;;;7.83;55.74
48424;BME280;34232;42.502;26.014;2023-02-19T02:33:56;100131.00;;;7.23;56.53
48424;BME280;34232;42.502;26.014;2023-02-19T02:36:28;100144.75;;;7.39;56.53
48424;BME280;34232;42.502;26.014;2023-02-19T02:38:55;100146.94;;;7.45;56.56
48424;BME280;34232;42.502;26.014;2023-02-19T02:41:22;100149.00;;;7.15;56.55
48424;BME280;34232;42.502;26.014;2023-02-19T02:43:47;100154.03;;;7.18;57.08
48424;BME280;34232;42.502;26.014;2023-02-19T02:46:15;100153.72;;;7.22;57.75
48424;BME280;34232;42.502;26.014;2023-02-19T02:48:44;100150.81;;;7.27;58.09
48424;BME280;34232;42.502;26.014;2023-02-19T02:53:46;100151.56;;;7.29;57.80
48424;BME280;34232;42.502;26.014;2023-02-19T02:56:31;100167.25;;;7.29;58.28
48424;BME280;34232;42.502;26.014;2023-02-19T02:58:57;100172.50;;;7.29;58.67
48424;BME280;34232;42.502;26.014;2023-02-19T03:01:26;100185.34;;;7.32;58.90
48424;BME280;34232;42.502;26.014;2023-02-19T03:04:13;100166.81;;;7.35;58.58
48424;BME280;34232;42.502;26.014;2023-02-19T03:06:40;100173.72;;;7.23;59.44
48424;BME280;34232;42.502;26.014;2023-02-19T03:09:10;100172.06;;;7.35;59.08
48424;BME280;34232;42.502;26.014;2023-02-19T03:11:40;100169.13;;;7.14;59.71
48424;BME280;34232;42.502;26.014;2023-02-19T03:14:30;100171.22;;;7.22;59.71
48424;BME280;34232;42.502;26.014;2023-02-19T03:17:28;100165.59;;;6.88;60.03
48424;BME280;34232;42.502;26.014;2023-02-19T03:20:14;100165.19;;;6.94;60.91
48424;BME280;34232;42.502;26.014;2023-02-19T03:22:44;100164.47;;;7.05;60.75
48424;BME280;34232;42.502;26.014;2023-02-19T03:25:11;100187.91;;;6.94;61.74
48424;BME280;34232;42.502;26.014;2023-02-19T03:27:56;100154.72;;;6.94;62.03
48424;BME280;34232;42.502;26.014;2023-02-19T03:30:24;100170.28;;;6.83;62.41
48424;BME280;34232;42.502;26.014;2023-02-19T03:35:32;100179.59;;;6.87;63.13
48424;BME280;34232;42.502;26.014;2023-02-19T03:38:03;100179.34;;;7.05;62.77
48424;BME280;34232;42.502;26.014;2023-02-19T03:40:33;100189.22;;;7.14;62.44
48424;BME280;34232;42.502;26.014;2023-02-19T03:45:36;100194.03;;;7.20;61.20
48424;BME280;34232;42.502;26.014;2023-02-19T03:56:09;100180.53;;;7.13;60.25
48424;BME280;34232;42.502;26.014;2023-02-19T03:58:42;100179.47;;;7.16;60.25
48424;BME280;34232;42.502;26.014;2023-02-19T04:01:29;100176.66;;;7.19;59.99
48424;BME280;34232;42.502;26.014;2023-02-19T04:03:58;100177.50;;;7.19;59.62
48424;BME280;34232;42.502;26.014;2023-02-19T04:06:26;100188.06;;;7.18;59.91
48424;BME280;34232;42.502;26.014;2023-02-19T04:08:53;100191.72;;;7.15;59.57
48424;BME280;34232;42.502;26.014;2023-02-19T04:11:20;100198.59;;;7.03;58.99
48424;BME280;34232;42.502;26.014;2023-02-19T04:13:49;100191.16;;;6.97;59.06
48424;BME280;34232;42.502;26.014;2023-02-19T04:16:25;100175.34;;;6.99;59.37
48424;BME280;34232;42.502;26.014;2023-02-19T04:18:52;100188.31;;;7.00;59.44
48424;BME280;34232;42.502;26.014;2023-02-19T04:21:18;100196.91;;;7.02;59.73
48424;BME280;34232;42.502;26.014;2023-02-19T04:23:45;100198.06;;;6.98;59.62
48424;BME280;34232;42.502;26.014;2023-02-19T04:26:10;100211.13;;;6.98;59.94
48424;BME280;34232;42.502;26.014;2023-02-19T04:28:36;100208.75;;;6.95;60.44
48424;BME280;34232;42.502;26.014;2023-02-19T04:31:02;100206.31;;;6.92;60.39
48424;BME280;34232;42.502;26.014;2023-02-19T04:33:27;100210.44;;;6.82;60.77
48424;BME280;34232;42.502;26.014;2023-02-19T04:35:53;100217.81;;;6.90;61.09
48424;BME280;34232;42.502;26.014;2023-02-19T04:38:18;100215.94;;;6.92;60.93
48424;BME280;34232;42.502;26.014;2023-02-19T04:40:43;100205.19;;;6.96;61.23
48424;BME280;34232;42.502;26.014;2023-02-19T04:43:08;100215.84;;;6.93;61.28
48424;BME280;34232;42.502;26.014;2023-02-19T04:45:35;100211.56;;;6.92;60.79
48424;BME280;34232;42.502;26.014;2023-02-19T04:48:01;100216.78;;;6.92;61.10
48424;BME280;34232;42.502;26.014;2023-02-19T04:50:26;100222.91;;;6.79;61.25
48424;BME280;34232;42.502;26.014;2023-02-19T04:52:51;100201.34;;;6.75;62.28
48424;BME280;34232;42.502;26.014;2023-02-19T04:55:17;100215.50;;;6.85;61.83
48424;BME280;34232;42.502;26.014;2023-02-19T04:57:42;100218.94;;;6.86;62.07
48424;BME280;34232;42.502;26.014;2023-02-19T05:00:08;100227.63;;;6.86;62.08
48424;BME280;34232;42.502;26.014;2023-02-19T05:02:33;100229.66;;;6.68;61.83
48424;BME280;34232;42.502;26.014;2023-02-19T05:04:59;100224.16;;;6.59;61.88
48424;BME280;34232;42.502;26.014;2023-02-19T05:07:24;100218.47;;;6.52;62.49
48424;BME280;34232;42.502;26.014;2023-02-19T05:09:49;100210.81;;;6.63;62.86
48424;BME280;34232;42.502;26.014;2023-02-19T05:12:15;100212.72;;;6.74;63.15
48424;BME280;34232;42.502;26.014;2023-02-19T05:14:40;100215.69;;;6.82;62.74
48424;BME280;34232;42.502;26.014;2023-02-19T05:17:05;100213.22;;;6.93;62.65
48424;BME280;34232;42.502;26.014;2023-02-19T05:19:31;100233.13;;;6.96;62.64
48424;BME280;34232;42.502;26.014;2023-02-19T05:21:56;100220.38;;;7.04;62.52
48424;BME280;34232;42.502;26.014;2023-02-19T05:24:21;100210.88;;;7.16;62.50
48424;BME280;34232;42.502;26.014;2023-02-19T05:26:48;100222.53;;;7.24;62.01
48424;BME280;34232;42.502;26.014;2023-02-19T05:29:13;100234.06;;;7.34;62.44
48424;BME280;34232;42.502;26.014;2023-02-19T05:31:38;100236.00;;;7.45;61.82
48424;BME280;34232;42.502;26.014;2023-02-19T05:34:04;100250.44;;;7.38;60.57
48424;BME280;34232;42.502;26.014;2023-02-19T05:36:29;100244.53;;;7.22;59.77
48424;BME280;34232;42.502;26.014;2023-02-19T05:38:55;100240.28;;;7.07;59.56
48424;BME280;34232;42.502;26.014;2023-02-19T05:41:24;100248.03;;;7.08;59.96
48424;BME280;34232;42.502;26.014;2023-02-19T05:43:50;100252.63;;;7.05;59.96
48424;BME280;34232;42.502;26.014;2023-02-19T05:46:17;100255.38;;;7.16;60.15
48424;BME280;34232;42.502;26.014;2023-02-19T05:48:44;100266.22;;;7.24;60.36
48424;BME280;34232;42.502;26.014;2023-02-19T05:51:10;100267.06;;;7.24;60.62
48424;BME280;34232;42.502;26.014;2023-02-19T05:53:36;100267.28;;;7.34;60.29
48424;BME280;34232;42.502;26.014;2023-02-19T05:56:01;100271.19;;;7.41;60.32
48424;BME280;34232;42.502;26.014;2023-02-19T05:58:27;100263.44;;;7.52;60.42
48424;BME280;34232;42.502;26.014;2023-02-19T06:00:52;100267.44;;;7.45;60.78
48424;BME280;34232;42.502;26.014;2023-02-19T06:03:18;100266.94;;;7.26;61.81
48424;BME280;34232;42.502;26.014;2023-02-19T06:05:43;100273.88;;;7.27;62.79
48424;BME280;34232;42.502;26.014;2023-02-19T06:08:12;100273.09;;;7.52;62.04
48424;BME280;34232;42.502;26.014;2023-02-19T06:10:37;100276.06;;;7.72;61.50
48424;BME280;34232;42.502;26.014;2023-02-19T06:13:05;100278.38;;;7.90;60.39
48424;BME280;34232;42.502;26.014;2023-02-19T06:15:30;100289.31;;;8.09;59.79
48424;BME280;34232;42.502;26.014;2023-02-19T06:17:56;100300.94;;;8.30;59.88
48424;BME280;34232;42.502;26.014;2023-02-19T06:20:21;100301.47;;;8.48;60.24
48424;BME280;34232;42.502;26.014;2023-02-19T06:22:48;100306.59;;;8.62;59.45
48424;BME280;34232;42.502;26.014;2023-02-19T06:25:13;100307.75;;;8.71;58.77
48424;BME280;34232;42.502;26.014;2023-02-19T06:27:39;100308.84;;;8.80;58.27
48424;BME280;34232;42.502;26.014;2023-02-19T06:30:04;100309.28;;;8.86;57.82
48424;BME280;34232;42.502;26.014;2023-02-19T06:32:29;100305.88;;;8.97;57.65
48424;BME280;34232;42.502;26.014;2023-02-19T06:34:55;100321.47;;;9.11;57.96
48424;BME280;34232;42.502;26.014;2023-02-19T06:37:20;100307.13;;;9.28;57.81
48424;BME280;34232;42.502;26.014;2023-02-19T06:39:45;100303.16;;;9.46;57.59
48424;BME280;34232;42.502;26.014;2023-02-19T06:42:10;100304.41;;;9.64;57.41
48424;BME280;34232;42.502;26.014;2023-02-19T06:44:36;100299.34;;;9.74;57.25
48424;BME280;34232;42.502;26.014;2023-02-19T06:47:01;100297.56;;;9.86;56.87
48424;BME280;34232;42.502;26.014;2023-02-19T06:49:26;100291.59;;;9.95;56.62
48424;BME280;34232;42.502;26.014;2023-02-19T06:51:51;100290.44;;;10.10;56.47
48424;BME280;34232;42.502;26.014;2023-02-19T06:54:17;100289.69;;;9.97;57.13
48424;BME280;34232;42.502;26.014;2023-02-19T06:56:42;100284.84;;;9.68;58.12
48424;BME280;34232;42.502;26.014;2023-02-19T06:59:09;100282.03;;;9.47;59.73
48424;BME280;34232;42.502;26.014;2023-02-19T07:01:35;100276.69;;;9.60;59.78
48424;BME280;34232;42.502;26.014;2023-02-19T07:04:00;100277.69;;;9.35;61.39
48424;BME280;34232;42.502;26.014;2023-02-19T07:06:25;100268.84;;;9.36;62.29
48424;BME280;34232;42.502;26.014;2023-02-19T07:08:51;100266.03;;;9.27;63.03
48424;BME280;34232;42.502;26.014;2023-02-19T07:11:17;100265.09;;;9.52;62.70
48424;BME280;34232;42.502;26.014;2023-02-19T07:13:42;100275.31;;;9.78;61.73
48424;BME280;34232;42.502;26.014;2023-02-19T07:16:08;100280.50;;;10.13;61.07
48424;BME280;34232;42.502;26.014;2023-02-19T07:18:35;100279.00;;;10.44;59.29
48424;BME280;34232;42.502;26.014;2023-02-19T07:21:01;100292.63;;;10.72;58.90
48424;BME280;34232;42.502;26.014;2023-02-19T07:23:26;100287.81;;;10.88;57.84
48424;BME280;34232;42.502;26.014;2023-02-19T07:25:51;100289.44;;;11.11;57.21
48424;BME280;34232;42.502;26.014;2023-02-19T07:28:17;100294.06;;;11.30;56.52
48424;BME280;34232;42.502;26.014;2023-02-19T07:30:42;100284.56;;;11.39;55.99
48424;BME280;34232;42.502;26.014;2023-02-19T07:33:08;100283.84;;;11.37;55.73
48424;BME280;34232;42.502;26.014;2023-02-19T07:35:34;100281.22;;;11.69;55.24
48424;BME280;34232;42.502;26.014;2023-02-19T07:37:59;100278.41;;;11.81;55.02
48424;BME280;34232;42.502;26.014;2023-02-19T07:40:24;100281.84;;;12.03;54.66
48424;BME280;34232;42.502;26.014;2023-02-19T07:42:50;100285.06;;;12.27;53.98
48424;BME280;34232;42.502;26.014;2023-02-19T07:45:15;100283.72;;;12.42;54.05
48424;BME280;34232;42.502;26.014;2023-02-19T07:47:40;100287.31;;;12.72;52.06
48424;BME280;34232;42.502;26.014;2023-02-19T07:50:06;100282.81;;;13.03;52.18
48424;BME280;34232;42.502;26.014;2023-02-19T07:52:32;100285.09;;;13.26;51.97
48424;BME280;34232;42.502;26.014;2023-02-19T07:54:57;100284.56;;;13.42;49.81
48424;BME280;34232;42.502;26.014;2023-02-19T07:57:22;100273.84;;;13.44;49.39
48424;BME280;34232;42.502;26.014;2023-02-19T07:59:48;100272.56;;;13.48;48.91
48424;BME280;34232;42.502;26.014;2023-02-19T08:02:17;100271.72;;;13.66;48.48
48424;BME280;34232;42.502;26.014;2023-02-19T08:05:01;100260.31;;;13.66;47.91
48424;BME280;34232;42.502;26.014;2023-02-19T08:07:31;100263.66;;;13.68;47.98
48424;BME280;34232;42.502;26.014;2023-02-19T08:09:56;100268.94;;;13.87;46.75
48424;BME280;34232;42.502;26.014;2023-02-19T08:12:40;100264.44;;;14.07;46.14
48424;BME280;34232;42.502;26.014;2023-02-19T08:15:24;100256.34;;;14.09;45.83
48424;BME280;34232;42.502;26.014;2023-02-19T08:17:49;100262.94;;;14.32;44.98
48424;BME280;34232;42.502;26.014;2023-02-19T08:20:14;100266.94;;;14.55;44.35
48424;BME280;34232;42.502;26.014;2023-02-19T08:22:40;100260.19;;;14.88;43.33
48424;BME280;34232;42.502;26.014;2023-02-19T08:25:05;100253.31;;;15.13;43.32
48424;BME280;34232;42.502;26.014;2023-02-19T08:27:30;100248.72;;;15.33;43.50
48424;BME280;34232;42.502;26.014;2023-02-19T08:29:57;100253.09;;;15.60;42.62
48424;BME280;34232;42.502;26.014;2023-02-19T08:32:22;100258.16;;;15.89;41.32
48424;BME280;34232;42.502;26.014;2023-02-19T08:34:47;100251.16;;;16.14;40.42
48424;BME280;34232;42.502;26.014;2023-02-19T08:37:12;100247.91;;;16.20;41.16
48424;BME280;34232;42.502;26.014;2023-02-19T08:39:38;100247.59;;;16.23;40.37
48424;BME280;34232;42.502;26.014;2023-02-19T08:42:03;100244.00;;;16.40;39.62
48424;BME280;34232;42.502;26.014;2023-02-19T08:44:28;100235.06;;;16.49;39.56
48424;BME280;34232;42.502;26.014;2023-02-19T08:46:54;100240.34;;;16.41;39.36
48424;BME280;34232;42.502;26.014;2023-02-19T08:49:19;100241.75;;;16.61;39.42
48424;BME280;34232;42.502;26.014;2023-02-19T08:51:44;100233.88;;;16.77;39.65
48424;BME280;34232;42.502;26.014;2023-02-19T08:54:09;100246.56;;;17.00;39.10
48424;BME280;34232;42.502;26.014;2023-02-19T08:56:35;100247.44;;;17.17;38.76
48424;BME280;34232;42.502;26.014;2023-02-19T08:59:00;100248.88;;;16.95;38.42
48424;BME280;34232;42.502;26.014;2023-02-19T09:01:25;100245.13;;;16.63;38.63
48424;BME280;34232;42.502;26.014;2023-02-19T09:03:51;100235.84;;;16.67;39.42
48424;BME280;34232;42.502;26.014;2023-02-19T09:06:18;100238.06;;;16.88;39.21
48424;BME280;34232;42.502;26.014;2023-02-19T09:08:43;100227.25;;;16.82;39.58
48424;BME280;34232;42.502;26.014;2023-02-19T09:11:09;100231.53;;;16.66;40.06
48424;BME280;34232;42.502;26.014;2023-02-19T09:13:34;100224.94;;;16.87;40.08
48424;BME280;34232;42.502;26.014;2023-02-19T09:16:01;100222.44;;;16.85;40.26
48424;BME280;34232;42.502;26.014;2023-02-19T09:18:26;100222.97;;;17.05;39.44
48424;BME280;34232;42.502;26.014;2023-02-19T09:20:51;100221.34;;;17.20;39.39
48424;BME280;34232;42.502;26.014;2023-02-19T09:23:16;100212.69;;;17.34;39.15
48424;BME280;34232;42.502;26.014;2023-02-19T09:25:42;100213.19;;;17.70;38.93
48424;BME280;34232;42.502;26.014;2023-02-19T09:28:07;100212.53;;;17.76;38.11
48424;BME280;34232;42.502;26.014;2023-02-19T09:30:32;100201.69;;;17.94;38.10
48424;BME280;34232;42.502;26.014;2023-02-19T09:32:57;100212.66;;;17.99;37.47
48424;BME280;34232;42.502;26.014;2023-02-19T09:35:23;100215.78;;;18.11;37.55
48424;BME280;34232;42.502;26.014;2023-02-19T09:37:48;100213.53;;;18.39;36.41
48424;BME280;34232;42.502;26.014;2023-02-19T09:40:13;100216.16;;;18.47;36.57
48424;BME280;34232;42.502;26.014;2023-02-19T09:42:45;100212.50;;;18.48;36.83
48424;BME280;34232;42.502;26.014;2023-02-19T09:45:13;100208.66;;;18.59;36.61
48424;BME280;34232;42.502;26.014;2023-02-19T09:47:40;100198.28;;;18.95;36.47
48424;BME280;34232;42.502;26.014;2023-02-19T09:50:06;100190.69;;;19.06;35.80
48424;BME280;34232;42.502;26.014;2023-02-19T09:55:30;100187.69;;;19.47;35.50
48424;BME280;34232;42.502;26.014;2023-02-19T09:57:59;100178.19;;;19.82;34.91
48424;BME280;34232;42.502;26.014;2023-02-19T10:00:28;100180.31;;;20.01;34.48
48424;BME280;34232;42.502;26.014;2023-02-19T10:03:08;100170.75;;;20.21;34.52
48424;BME280;34232;42.502;26.014;2023-02-19T10:05:35;100164.56;;;20.21;33.96
48424;BME280;34232;42.502;26.014;2023-02-19T10:08:00;100157.06;;;20.46;33.52
48424;BME280;34232;42.502;26.014;2023-02-19T10:10:31;100155.22;;;20.82;32.76
48424;BME280;34232;42.502;26.014;2023-02-19T10:13:04;100148.84;;;20.83;32.90
48424;BME280;34232;42.502;26.014;2023-02-19T10:15:37;100141.72;;;20.69;33.04
48424;BME280;34232;42.502;26.014;2023-02-19T10:18:05;100135.84;;;20.59;33.30
48424;BME280;34232;42.502;26.014;2023-02-19T10:20:31;100133.97;;;20.74;33.01
48424;BME280;34232;42.502;26.014;2023-02-19T10:23:01;100123.00;;;20.90;32.71
48424;BME280;34232;42.502;26.014;2023-02-19T10:25:26;100120.50;;;21.32;32.36
48424;BME280;34232;42.502;26.014;2023-02-19T10:27:52;100114.34;;;21.65;33.00
48424;BME280;34232;42.502;26.014;2023-02-19T10:30:22;100110.47;;;22.03;31.73
48424;BME280;34232;42.502;26.014;2023-02-19T10:35:22;100092.25;;;22.39;31.07
48424;BME280;34232;42.502;26.014;2023-02-19T10:37:48;100086.13;;;22.65;30.71
48424;BME280;34232;42.502;26.014;2023-02-19T10:40:24;100089.81;;;22.64;31.07
48424;BME280;34232;42.502;26.014;2023-02-19T10:42:51;100076.06;;;22.93;30.36
48424;BME280;34232;42.502;26.014;2023-02-19T10:45:18;100067.78;;;22.95;29.98
48424;BME280;34232;42.502;26.014;2023-02-19T10:47:46;100056.84;;;23.03;29.87
48424;BME280;34232;42.502;26.014;2023-02-19T10:53:19;100039.09;;;23.02;29.88
48424;BME280;34232;42.502;26.014;2023-02-19T10:55:44;100028.34;;;23.02;30.12
48424;BME280;34232;42.502;26.014;2023-02-19T10:58:20;100032.25;;;23.19;29.07
48424;BME280;34232;42.502;26.014;2023-02-19T11:00:46;100032.81;;;23.54;28.87
48424;BME280;34232;42.502;26.014;2023-02-19T11:03:21;100029.44;;;23.79;28.18
48424;BME280;34232;42.502;26.014;2023-02-19T11:05:56;100026.47;;;24.00;28.27
48424;BME280;34232;42.502;26.014;2023-02-19T11:08:24;100030.47;;;24.22;28.38
48424;BME280;34232;42.502;26.014;2023-02-19T11:10:49;100025.41;;;24.46;26.49
48424;BME280;34232;42.502;26.014;2023-02-19T11:13:16;100020.91;;;24.64;26.02
48424;BME280;34232;42.502;26.014;2023-02-19T11:15:43;100010.81;;;24.60;26.18
48424;BME280;34232;42.502;26.014;2023-02-19T11:18:22;100025.72;;;24.56;26.01
48424;BME280;34232;42.502;26.014;2023-02-19T11:20:52;100015.22;;;24.16;26.17
48424;BME280;34232;42.502;26.014;2023-02-19T11:23:19;100011.91;;;24.14;26.29
48424;BME280;34232;42.502;26.014;2023-02-19T11:25:50;100012.28;;;24.24;25.97
48424;BME280;34232;42.502;26.014;2023-02-19T11:30:48;100014.25;;;24.35;26.54
48424;BME280;34232;42.502;26.014;2023-02-19T11:35:43;100009.25;;;24.46;25.19
48424;BME280;34232;42.502;26.014;2023-02-19T11:38:10;100013.94;;;24.25;25.85
48424;BME280;34232;42.502;26.014;2023-02-19T11:45:51;100008.91;;;23.91;25.23
48424;BME280;34232;42.502;26.014;2023-02-19T11:48:33;100000.09;;;23.70;26.21
48424;BME280;34232;42.502;26.014;2023-02-19T11:51:10;99999.72;;;23.60;25.65
48424;BME280;34232;42.502;26.014;2023-02-19T11:53:42;100003.88;;;23.50;25.49
48424;BME280;34232;42.502;26.014;2023-02-19T12:01:07;99985.31;;;23.22;26.71
48424;BME280;34232;42.502;26.014;2023-02-19T12:09:05;99978.16;;;22.96;26.86
48424;BME280;34232;42.502;26.014;2023-02-19T12:12:00;99978.38;;;22.88;27.25
48424;BME280;34232;42.502;26.014;2023-02-19T12:37:34;99973.16;;;22.33;28.55
48424;BME280;34232;42.502;26.014;2023-02-19T12:42:36;99973.97;;;22.27;28.37
48424;BME280;34232;42.502;26.014;2023-02-19T12:45:06;99967.16;;;22.25;28.63
48424;BME280;34232;42.502;26.014;2023-02-19T12:47:35;99962.41;;;22.27;29.48
48424;BME280;34232;42.502;26.014;2023-02-19T12:52:38;99962.63;;;22.32;28.58
48424;BME280;34232;42.502;26.014;2023-02-19T12:57:42;99962.81;;;22.17;29.32
48424;BME280;34232;42.502;26.014;2023-02-19T13:10:32;99951.06;;;22.18;28.90
48424;BME280;34232;42.502;26.014;2023-02-19T13:13:03;99945.72;;;22.18;29.24
48424;BME280;34232;42.502;26.014;2023-02-19T13:15:38;99941.97;;;22.06;29.05
48424;BME280;34232;42.502;26.014;2023-02-19T13:18:06;99943.19;;;22.10;29.15
48424;BME280;34232;42.502;26.014;2023-02-19T13:20:37;99933.94;;;22.06;28.76
48424;BME280;34232;42.502;26.014;2023-02-19T13:36:42;99923.34;;;21.98;29.37
48424;BME280;34232;42.502;26.014;2023-02-19T13:39:11;99924.59;;;21.95;29.02
48424;BME280;34232;42.502;26.014;2023-02-19T13:41:41;99921.69;;;21.97;28.91
48424;BME280;34232;42.502;26.014;2023-02-19T13:44:17;99912.41;;;21.93;28.94
48424;BME280;34232;42.502;26.014;2023-02-19T13:46:44;99910.34;;;21.88;29.40
48424;BME280;34232;42.502;26.014;2023-02-19T13:51:51;99915.91;;;21.80;29.03
48424;BME280;34232;42.502;26.014;2023-02-19T13:54:20;99901.88;;;21.85;29.49
48424;BME280;34232;42.502;26.014;2023-02-19T13:56:46;99894.25;;;21.82;29.01
48424;BME280;34232;42.502;26.014;2023-02-19T13:59:32;99888.25;;;21.80;29.46
48424;BME280;34232;42.502;26.014;2023-02-19T14:04:43;99891.34;;;21.77;28.92
48424;BME280;34232;42.502;26.014;2023-02-19T14:12:08;99885.97;;;21.77;29.62
48424;BME280;34232;42.502;26.014;2023-02-19T14:24:53;99878.94;;;21.62;29.91
48424;BME280;34232;42.502;26.014;2023-02-19T14:27:19;99872.56;;;21.63;29.67
48424;BME280;34232;42.502;26.014;2023-02-19T14:29:44;99883.50;;;21.69;29.80
48424;BME280;34232;42.502;26.014;2023-02-19T14:32:15;99877.91;;;21.63;30.11
48424;BME280;34232;42.502;26.014;2023-02-19T14:34:46;99873.38;;;21.57;29.83
48424;BME280;34232;42.502;26.014;2023-02-19T14:37:15;99877.09;;;21.56;30.01
48424;BME280;34232;42.502;26.014;2023-02-19T14:39:42;99881.38;;;21.51;30.45
48424;BME280;34232;42.502;26.014;2023-02-19T14:42:15;99883.84;;;21.46;30.41
48424;BME280;34232;42.502;26.014;2023-02-19T14:44:49;99874.16;;;21.45;29.98
48424;BME280;34232;42.502;26.014;2023-02-19T14:47:19;99873.31;;;21.44;30.36
48424;BME280;34232;42.502;26.014;2023-02-19T14:49:46;99868.41;;;21.41;29.85
48424;BME280;34232;42.502;26.014;2023-02-19T14:52:26;99862.16;;;21.34;30.50
48424;BME280;34232;42.502;26.014;2023-02-19T14:54:55;99860.91;;;21.30;30.51
48424;BME280;34232;42.502;26.014;2023-02-19T14:57:24;99865.25;;;21.31;30.76
48424;BME280;34232;42.502;26.014;2023-02-19T14:59:55;99871.00;;;21.28;30.58
48424;BME280;34232;42.502;26.014;2023-02-19T15:02:22;99867.84;;;21.18;30.85